Time;durP1;ratioP1;P1;durP2;ratioP2;P2;SDS_P1;SDS_P2;PMS_P1;PMS_P2;Temp;Humidity;BMP_temperature;BMP_pressure;BME280_temperature;BME280_humidity;BME280_pressure;Samples;Min_cycle;Max_cycle;Signal;HPM_P1;HPM_P2
2022/09/22 00:01:00;;;;;;;1999.90;999.90;;;;;;;5.83;100.00;94990.94;6245340;22;20252;-55
2022/09/22 00:03:29;;;;;;;1999.90;999.90;;;;;;;5.87;100.00;94978.16;6245516;23;20172;-55
2022/09/22 00:06:10;;;;;;;1999.90;999.90;;;;;;;5.75;100.00;94994.72;6245869;23;20172;-54
2022/09/22 00:08:38;;;;;;;1999.90;999.90;;;;;;;5.88;100.00;94991.34;6245166;22;20166;-54
2022/09/22 00:11:15;;;;;;;1999.90;999.90;;;;;;;5.95;100.00;94993.28;6245275;23;20539;-53
2022/09/22 00:13:43;;;;;;;1999.90;999.90;;;;;;;5.87;100.00;94997.91;6245729;23;20244;-56
2022/09/22 00:16:10;;;;;;;1999.90;999.90;;;;;;;5.82;100.00;94989.34;6270727;22;20162;-54
2022/09/22 00:18:39;;;;;;;1999.90;999.90;;;;;;;5.81;100.00;95004.06;6271211;22;20189;-56
2022/09/22 00:21:11;;;;;;;1999.90;999.90;;;;;;;5.73;100.00;94997.06;6245892;22;20170;-52
2022/09/22 00:23:37;;;;;;;1999.90;999.90;;;;;;;5.74;100.00;94995.88;6244195;23;20157;-53
2022/09/22 00:26:11;;;;;;;1999.90;999.90;;;;;;;5.72;100.00;94990.84;6245262;23;20161;-54
2022/09/22 00:28:38;;;;;;;1999.90;999.90;;;;;;;5.69;100.00;94997.03;6246024;23;20198;-53
2022/09/22 00:31:11;;;;;;;1999.90;999.90;;;;;;;5.67;100.00;94993.16;6245620;22;20189;-56
2022/09/22 00:33:39;;;;;;;1999.90;999.90;;;;;;;5.63;100.00;94997.78;6245151;23;20207;-51
2022/09/22 00:36:06;;;;;;;1999.90;999.90;;;;;;;5.60;100.00;94990.41;6244972;22;20173;-53
2022/09/22 00:38:35;;;;;;;1999.90;999.90;;;;;;;5.57;100.00;94991.97;6213867;23;20162;-55
2022/09/22 00:41:01;;;;;;;1999.90;999.90;;;;;;;5.52;100.00;94992.34;6188975;23;20170;-55
2022/09/22 00:43:29;;;;;;;1999.90;999.90;;;;;;;5.53;100.00;94993.88;6189040;23;20216;-55
2022/09/22 00:46:08;;;;;;;1999.90;999.90;;;;;;;5.50;100.00;94986.50;6189130;23;20176;-54
2022/09/22 00:48:43;;;;;;;1999.90;999.90;;;;;;;5.49;100.00;94981.47;6189158;23;20170;-54
2022/09/22 00:51:11;;;;;;;1999.90;999.90;;;;;;;5.47;100.00;94983.81;6188441;23;20654;-55
2022/09/22 00:53:37;;;;;;;1999.90;999.90;;;;;;;5.45;100.00;94977.97;6188555;23;20196;-55
2022/09/22 00:56:11;;;;;;;1999.90;999.90;;;;;;;5.44;100.00;94979.13;6188805;23;20233;-54
2022/09/22 00:58:46;;;;;;;1999.90;999.90;;;;;;;5.40;100.00;94973.72;6188787;23;20170;-54
2022/09/22 01:01:13;;;;;;;1999.90;999.90;;;;;;;5.39;100.00;94974.09;6189104;23;20174;-54
2022/09/22 01:03:40;;;;;;;1999.90;999.90;;;;;;;5.36;100.00;94970.19;6188872;23;20550;-52
2022/09/22 01:06:08;;;;;;;1999.90;999.90;;;;;;;5.31;100.00;94964.38;6188580;23;20191;-55
2022/09/22 01:08:36;;;;;;;1999.90;999.90;;;;;;;5.30;100.00;94969.03;6192277;23;20162;-51
2022/09/22 01:11:02;;;;;;;1999.90;999.90;;;;;;;5.25;100.00;94968.63;6220658;22;20189;-54
2022/09/22 01:13:40;;;;;;;1999.90;999.90;;;;;;;5.17;100.00;94958.91;6244886;22;20171;-54
2022/09/22 01:16:10;;;;;;;1999.90;999.90;;;;;;;5.17;100.00;94961.63;6244863;23;20165;-54
2022/09/22 01:18:48;;;;;;;1999.90;999.90;;;;;;;5.15;100.00;94961.22;6270580;22;20153;-53
2022/09/22 01:21:29;;;;;;;1999.90;999.90;;;;;;;5.08;100.00;94950.34;6245099;23;20176;-54
2022/09/22 01:24:29;;;;;;;1999.90;999.90;;;;;;;5.05;100.00;94945.69;6244862;23;20252;-55
2022/09/22 01:27:01;;;;;;;1999.90;999.90;;;;;;;5.01;100.00;94950.31;6271275;22;20173;-54
2022/09/22 01:29:26;;;;;;;1999.90;999.90;;;;;;;5.00;100.00;94957.66;6270466;22;20222;-54
2022/09/22 01:31:54;;;;;;;1999.90;999.90;;;;;;;4.98;100.00;94946.44;6270579;22;20231;-54
2022/09/22 01:34:46;;;;;;;1999.90;999.90;;;;;;;4.97;100.00;94946.81;6270741;22;20165;-54
2022/09/22 01:37:44;;;;;;;1999.90;999.90;;;;;;;4.94;100.00;94955.69;6271673;22;20256;-51
2022/09/22 01:40:21;;;;;;;1999.90;999.90;;;;;;;4.92;100.00;94952.59;6141541;23;21097;-55
2022/09/22 01:42:56;;;;;;;1999.90;999.90;;;;;;;4.90;100.00;94950.25;6271887;22;20196;-52
2022/09/22 01:45:28;;;;;;;1999.90;999.90;;;;;;;4.86;100.00;94949.47;6246710;23;20164;-51
2022/09/22 01:47:58;;;;;;;1999.90;999.90;;;;;;;4.80;100.00;94950.97;6245977;23;20161;-52
2022/09/22 01:50:25;;;;;;;1999.90;999.90;;;;;;;4.72;100.00;94954.00;6271160;22;20181;-54
2022/09/22 01:52:54;;;;;;;1999.90;999.90;;;;;;;4.68;100.00;94955.91;6271623;22;20184;-53
2022/09/22 01:55:37;;;;;;;1999.90;999.90;;;;;;;4.67;100.00;94951.66;6246423;23;20207;-51
2022/09/22 01:58:08;;;;;;;1999.90;999.90;;;;;;;4.67;100.00;94946.25;6246710;23;20153;-54
2022/09/22 02:00:38;;;;;;;1999.90;999.90;;;;;;;4.67;100.00;94948.94;6272069;22;20248;-51
2022/09/22 02:03:10;;;;;;;1999.90;999.90;;;;;;;4.61;100.00;94948.53;6245722;22;20156;-54
2022/09/22 02:05:44;;;;;;;1999.90;999.90;;;;;;;4.62;100.00;94957.41;6246470;23;20231;-52
2022/09/22 02:08:18;;;;;;;1999.90;999.90;;;;;;;4.63;100.00;94961.66;6246102;23;20617;-52
2022/09/22 02:10:47;;;;;;;1999.90;999.90;;;;;;;4.63;100.00;94958.97;6271415;22;20248;-53
2022/09/22 02:13:13;;;;;;;1999.90;999.90;;;;;;;4.61;100.00;94958.56;6246337;23;20240;-53
2022/09/22 02:18:28;;;;;;;1999.90;999.90;;;;;;;4.52;100.00;94961.56;6247183;23;20156;-54
2022/09/22 02:20:53;;;;;;;1999.90;999.90;;;;;;;4.49;100.00;94959.66;6246653;23;20169;-54
2022/09/22 02:23:19;;;;;;;1999.90;999.90;;;;;;;4.51;100.00;94962.72;6271658;22;20167;-50
2022/09/22 02:25:45;;;;;;;1999.90;999.90;;;;;;;4.49;100.00;94961.56;6245653;22;20201;-51
2022/09/22 02:28:15;;;;;;;1999.90;999.90;;;;;;;4.45;100.00;94961.53;6214659;23;20253;-51
2022/09/22 02:30:42;;;;;;;1999.90;999.90;;;;;;;4.44;100.00;94972.72;6214980;23;20190;-51
2022/09/22 02:33:10;;;;;;;1999.90;999.90;;;;;;;4.41;100.00;94968.81;6189788;23;20597;-53
2022/09/22 02:35:38;;;;;;;1999.90;999.90;;;;;;;4.37;100.00;94969.97;6189344;23;20224;-52
2022/09/22 02:38:10;;;;;;;1999.90;999.90;;;;;;;4.33;100.00;94969.16;6189645;23;20251;-51
2022/09/22 02:40:53;;;;;;;1999.90;999.90;;;;;;;4.34;100.00;94976.13;6214904;23;20166;-52
2022/09/22 02:43:38;;;;;;;1999.90;999.90;;;;;;;4.37;100.00;94975.38;6214822;23;20216;-53
2022/09/22 02:46:22;;;;;;;1999.90;999.90;;;;;;;4.36;100.00;94973.78;6189516;23;20519;-52
2022/09/22 02:48:51;;;;;;;1999.90;999.90;;;;;;;4.33;100.00;94980.72;6189666;23;20562;-51
2022/09/22 02:51:17;;;;;;;1999.90;999.90;;;;;;;4.30;100.00;94969.91;6188975;23;20655;-52
2022/09/22 02:53:43;;;;;;;1999.90;999.90;;;;;;;4.27;100.00;94979.53;6189502;23;20216;-51
2022/09/22 02:56:09;;;;;;;1999.90;999.90;;;;;;;4.27;100.00;94978.75;6190064;23;20161;-52
2022/09/22 02:58:34;;;;;;;1999.90;999.90;;;;;;;4.29;100.00;94979.16;6201599;23;20199;-52
2022/09/22 03:01:00;;;;;;;1999.90;999.90;;;;;;;4.26;100.00;94975.25;6271456;22;20188;-53
2022/09/22 03:03:25;;;;;;;1999.90;999.90;;;;;;;4.21;100.00;94989.13;6271206;22;20193;-52
2022/09/22 03:05:50;;;;;;;1999.90;999.90;;;;;;;4.12;100.00;94991.38;6271659;22;20172;-48
2022/09/22 03:08:19;;;;;;;1999.90;999.90;;;;;;;4.10;100.00;94987.47;6271794;22;20170;-55
2022/09/22 03:10:44;;;;;;;1999.90;999.90;;;;;;;4.17;100.00;94979.41;6271232;22;20215;-55
2022/09/22 03:13:10;;;;;;;1999.90;999.90;;;;;;;4.14;100.00;94986.34;6271430;22;20165;-51
2022/09/22 03:15:35;;;;;;;1999.90;999.90;;;;;;;4.01;100.00;94974.28;6271005;22;20165;-52
2022/09/22 03:18:00;;;;;;;1999.90;999.90;;;;;;;4.04;100.00;94975.47;6271058;22;20466;-55
2022/09/22 03:20:26;;;;;;;1999.90;999.90;;;;;;;4.05;100.00;94977.00;6271187;22;20169;-53
2022/09/22 03:22:51;;;;;;;1999.90;999.90;;;;;;;4.01;100.00;94984.31;6271228;22;20160;-51
2022/09/22 03:25:16;;;;;;;1999.90;999.90;;;;;;;4.00;100.00;94985.44;6271089;22;20177;-52
2022/09/22 03:27:42;;;;;;;1999.90;999.90;;;;;;;3.98;100.00;94985.03;6271191;22;20196;-50
2022/09/22 03:30:08;;;;;;;1999.90;999.90;;;;;;;3.94;100.00;94984.22;6270834;22;20208;-51
2022/09/22 03:32:34;;;;;;;1999.90;999.90;;;;;;;3.91;100.00;94985.75;6245246;22;20157;-53
2022/09/22 03:34:59;;;;;;;1999.90;999.90;;;;;;;3.93;100.00;94982.69;6246392;22;20176;-55
2022/09/22 03:37:25;;;;;;;1999.90;999.90;;;;;;;3.98;100.00;94982.34;6270949;22;20502;-52
2022/09/22 03:39:51;;;;;;;1999.90;999.90;;;;;;;3.99;100.00;94981.19;6245361;23;20176;-50
2022/09/22 03:42:16;;;;;;;1999.90;999.90;;;;;;;4.02;100.00;94975.03;6271461;22;20165;-55
2022/09/22 03:44:42;;;;;;;1999.90;999.90;;;;;;;3.97;100.00;94978.84;6271461;22;20164;-52
2022/09/22 03:47:07;;;;;;;1999.90;999.90;;;;;;;3.94;100.00;94979.63;6246017;22;20165;-53
2022/09/22 03:49:33;;;;;;;1999.90;999.90;;;;;;;3.93;100.00;94977.28;6270811;22;20684;-54
2022/09/22 03:51:58;;;;;;;1999.90;999.90;;;;;;;3.90;100.00;94978.00;6245437;23;20189;-55
2022/09/22 03:54:24;;;;;;;1999.90;999.90;;;;;;;3.84;100.00;94976.78;6245101;23;20162;-52
2022/09/22 03:56:50;;;;;;;1999.90;999.90;;;;;;;3.77;100.00;94979.41;6271051;22;20165;-52
2022/09/22 03:59:15;;;;;;;1999.90;999.90;;;;;;;3.77;100.00;94974.78;6244601;23;20252;-54
2022/09/22 04:01:40;;;;;;;1999.90;999.90;;;;;;;3.76;100.00;94980.56;6271002;22;20165;-52
2022/09/22 04:04:06;;;;;;;1999.90;999.90;;;;;;;3.75;100.00;94981.72;6271416;22;20171;-51
2022/09/22 04:06:32;;;;;;;1999.90;999.90;;;;;;;3.76;100.00;94977.88;6245594;22;20172;-52
2022/09/22 04:08:57;;;;;;;1999.90;999.90;;;;;;;3.71;100.00;94976.25;6271354;22;20220;-53
2022/09/22 04:11:23;;;;;;;1999.90;999.90;;;;;;;3.71;100.00;94981.66;6271412;22;20227;-54
2022/09/22 04:13:49;;;;;;;1999.90;999.90;;;;;;;3.68;100.00;94976.25;6245341;22;20162;-53
2022/09/22 04:16:14;;;;;;;1999.90;999.90;;;;;;;3.67;100.00;94970.06;6244965;22;20252;-53
2022/09/22 04:18:39;;;;;;;1999.90;999.90;;;;;;;3.65;100.00;94976.97;6270936;22;20165;-51
2022/09/22 04:21:06;;;;;;;1999.90;999.90;;;;;;;3.63;100.00;94974.63;6245011;22;20548;-53
2022/09/22 04:23:31;;;;;;;1999.90;999.90;;;;;;;3.63;100.00;94973.84;6245048;22;20153;-53
2022/09/22 04:25:57;;;;;;;1999.90;999.90;;;;;;;3.63;100.00;94973.84;6245133;23;20207;-51
2022/09/22 04:28:23;;;;;;;1999.90;999.90;;;;;;;3.63;100.00;94968.44;6245530;23;20184;-51
2022/09/22 04:30:48;;;;;;;1999.90;999.90;;;;;;;3.62;100.00;94977.72;6245012;22;20185;-51
2022/09/22 04:33:14;;;;;;;1999.90;999.90;;;;;;;3.66;100.00;94967.72;6244792;22;20165;-54
2022/09/22 04:35:39;;;;;;;1999.90;999.90;;;;;;;3.62;100.00;94975.00;6244891;22;20491;-51
2022/09/22 04:38:04;;;;;;;1999.90;999.90;;;;;;;3.65;100.00;94982.38;6270200;22;20496;-54
2022/09/22 04:40:30;;;;;;;1999.90;999.90;;;;;;;3.61;100.00;94981.56;6244840;23;20171;-54
2022/09/22 04:42:56;;;;;;;1999.90;999.90;;;;;;;3.58;100.00;94985.78;6271157;22;20161;-55
2022/09/22 04:45:22;;;;;;;1999.90;999.90;;;;;;;3.60;100.00;94977.31;6270460;22;20165;-54
2022/09/22 04:47:50;;;;;;;1999.90;999.90;;;;;;;3.58;100.00;94985.78;6244979;22;20165;-54
2022/09/22 04:50:17;;;;;;;1999.90;999.90;;;;;;;3.56;100.00;94982.66;6244637;23;20185;-52
2022/09/22 04:52:47;;;;;;;1999.90;999.90;;;;;;;3.56;100.00;94984.59;6270740;22;20167;-54
2022/09/22 04:55:14;;;;;;;1999.90;999.90;;;;;;;3.55;100.00;94991.91;6244804;22;20252;-53
2022/09/22 04:57:40;;;;;;;1999.90;999.90;;;;;;;3.58;100.00;94988.47;6244781;23;20599;-52
2022/09/22 05:00:06;;;;;;;1999.90;999.90;;;;;;;3.57;100.00;94991.53;6244664;23;20169;-54
2022/09/22 05:02:33;;;;;;;1999.90;999.90;;;;;;;3.51;100.00;95008.03;6245137;23;20158;-54
2022/09/22 05:04:59;;;;;;;1999.90;999.90;;;;;;;3.51;100.00;95005.34;6244378;22;20158;-55
2022/09/22 05:07:24;;;;;;;1999.90;999.90;;;;;;;3.48;100.00;95006.09;6270316;22;20191;-56
2022/09/22 05:09:49;;;;;;;1999.90;999.90;;;;;;;3.45;100.00;95012.22;6271285;22;20165;-53
2022/09/22 05:12:14;;;;;;;1999.90;999.90;;;;;;;3.51;100.00;95020.78;6271348;22;20173;-52
2022/09/22 05:14:41;;;;;;;1999.90;999.90;;;;;;;3.53;100.00;95023.09;6272061;22;20171;-53
2022/09/22 05:17:06;;;;;;;1999.90;999.90;;;;;;;3.50;100.00;95019.97;6271909;22;20199;-52
2022/09/22 05:19:31;;;;;;;1999.90;999.90;;;;;;;3.58;100.00;95024.31;6245854;22;20244;-51
2022/09/22 05:21:57;;;;;;;1999.90;999.90;;;;;;;3.60;100.00;95023.19;6271695;22;20169;-52
2022/09/22 05:24:22;;;;;;;1999.90;999.90;;;;;;;3.49;100.00;95025.75;6271240;22;20491;-53
2022/09/22 05:26:48;;;;;;;1999.90;999.90;;;;;;;3.56;100.00;95022.38;6271384;22;20175;-53
2022/09/22 05:29:17;;;;;;;1999.90;999.90;;;;;;;3.63;100.00;95022.44;6271643;22;20157;-53
2022/09/22 05:31:42;;;;;;;1999.90;999.90;;;;;;;3.50;100.00;95019.97;6271485;22;20568;-52
2022/09/22 05:34:08;;;;;;;1999.90;999.90;;;;;;;3.58;100.00;95015.47;6246179;22;20594;-54
2022/09/22 05:36:33;;;;;;;1999.90;999.90;;;;;;;3.81;100.00;95007.22;6271551;22;20165;-55
2022/09/22 05:38:58;;;;;;;1999.90;999.90;;;;;;;3.99;100.00;95013.59;6271158;22;20193;-55
2022/09/22 05:41:24;;;;;;;1999.90;999.90;;;;;;;4.16;100.00;95016.50;6245599;23;20181;-56
2022/09/22 05:43:49;;;;;;;1999.90;999.90;;;;;;;4.44;100.00;95018.69;6271604;22;20157;-56
2022/09/22 05:46:14;;;;;;;1999.90;999.90;;;;;;;4.88;100.00;95022.88;6271892;22;20200;-56
2022/09/22 05:48:40;;;;;;;1999.90;999.90;;;;;;;5.13;100.00;95020.38;6271201;22;20153;-54
2022/09/22 05:51:05;;;;;;;1999.90;999.90;;;;;;;5.71;100.00;95010.19;6271221;22;20319;-56
2022/09/22 05:53:30;;;;;;;1999.90;999.90;;;;;;;6.51;100.00;94996.88;6271439;22;20493;-55
2022/09/22 05:55:56;;;;;;;1999.90;999.90;;;;;;;7.57;100.00;94972.28;6271378;22;20240;-57
2022/09/22 05:58:22;;;;;;;1999.90;999.90;;;;;;;8.33;100.00;94949.38;6271221;22;20188;-55
2022/09/22 06:00:47;;;;;;;1999.90;999.90;;;;;;;9.17;100.00;94893.38;6271217;22;20167;-56
2022/09/22 06:03:12;;;;;;;1999.90;999.90;;;;;;;10.13;100.00;94830.97;6271553;22;20203;-55
2022/09/22 06:05:38;;;;;;;1999.90;999.90;;;;;;;10.70;100.00;94722.34;6271196;22;20280;-53
2022/09/22 06:08:05;;;;;;;1999.90;999.90;;;;;;;10.98;100.00;94708.13;6272104;22;20496;-55
2022/09/22 06:10:32;;;;;;;1999.90;999.90;;;;;;;11.15;100.00;94759.66;6271244;22;20234;-54
2022/09/22 06:13:02;;;;;;;1999.90;999.90;;;;;;;10.89;100.00;94836.31;6245786;23;20402;-56
2022/09/22 06:15:28;;;;;;;1999.90;999.90;;;;;;;11.31;100.00;94912.00;6245590;23;20172;-56
2022/09/22 06:17:55;;;;;;;1999.90;999.90;;;;;;;11.66;100.00;94979.75;6245387;23;20488;-54
2022/09/22 06:20:20;;;;;;;1999.90;999.90;;;;;;;11.50;100.00;95056.16;6245423;22;20244;-56
2022/09/22 06:22:46;;;;;;;1999.90;999.90;;;;;;;11.75;100.00;95073.72;6245343;23;20161;-57
2022/09/22 06:25:12;;;;;;;1999.90;999.90;;;;;;;12.02;100.00;95076.38;6271113;22;20168;-56
2022/09/22 06:27:38;;;;;;;1999.90;999.90;;;;;;;11.98;100.00;95105.78;6270178;22;20248;-55
2022/09/22 06:30:04;;;;;;;1999.90;999.90;;;;;;;12.92;100.00;95094.84;6271064;22;20162;-55
2022/09/22 06:32:32;;;;;;;1999.90;999.90;;;;;;;13.67;100.00;95128.38;6271226;22;20168;-56
2022/09/22 06:35:01;;;;;;;1999.90;999.90;;;;;;;14.21;100.00;95203.50;6246332;22;20193;-52
2022/09/22 06:37:27;;;;;;;1999.90;999.90;;;;;;;14.49;100.00;95260.50;6245528;23;20240;-56
2022/09/22 06:39:53;;;;;;;1999.90;999.90;;;;;;;14.25;100.00;95594.28;6271095;22;20429;-55
2022/09/22 06:42:18;;;;;;;1999.90;999.90;;;;;;;14.70;100.00;95809.78;6245600;22;20587;-57
2022/09/22 06:44:44;;;;;;;1999.90;999.90;;;;;;;14.62;100.00;95862.53;6271394;22;20153;-56
2022/09/22 06:47:11;;;;;;;1999.90;999.90;;;;;;;14.83;100.00;95893.22;6246035;22;20188;-55
2022/09/22 06:49:36;;;;;;;1999.90;999.90;;;;;;;15.48;100.00;95853.16;6271339;22;20161;-58
2022/09/22 06:52:02;;;;;;;1999.90;999.90;;;;;;;15.73;100.00;95799.13;6245670;22;20323;-57
2022/09/22 06:54:27;;;;;;;1999.90;999.90;;;;;;;16.28;100.00;95785.28;6245694;23;20173;-59
2022/09/22 06:56:52;;;;;;;1999.90;999.90;;;;;;;16.77;100.00;95761.22;6271224;22;20665;-57
2022/09/22 06:59:18;;;;;;;1999.90;999.90;;;;;;;16.95;100.00;95752.47;6271329;22;20302;-57
2022/09/22 07:01:44;;;;;;;1999.90;999.90;;;;;;;16.86;100.00;95746.81;6270942;22;20173;-56
2022/09/22 07:04:11;;;;;;;1999.90;999.90;;;;;;;17.12;100.00;95738.19;6246510;22;20170;-57
2022/09/22 07:06:36;;;;;;;1999.90;999.90;;;;;;;17.27;100.00;95744.09;6246083;22;20165;-57
2022/09/22 07:09:03;;;;;;;1999.90;999.90;;;;;;;17.23;100.00;95738.66;6246246;22;20226;-57
2022/09/22 07:11:29;;;;;;;1999.90;999.90;;;;;;;17.53;100.00;95745.72;6245631;23;20196;-57
2022/09/22 07:13:55;;;;;;;1999.90;999.90;;;;;;;17.92;100.00;95757.16;6271373;22;20157;-57
2022/09/22 07:16:22;;;;;;;1999.90;999.90;;;;;;;17.64;100.00;95763.56;6245546;23;20169;-57
2022/09/22 07:18:50;;;;;;;1999.90;999.90;;;;;;;17.65;100.00;95753.25;6245802;23;20168;-59
2022/09/22 07:21:30;;;;;;;1999.90;999.90;;;;;;;17.69;100.00;95748.41;6245410;22;20275;-57
2022/09/22 07:23:56;;;;;;;1999.90;999.90;;;;;;;17.97;100.00;95764.13;6245337;23;20172;-57
2022/09/22 07:26:27;;;;;;;1999.90;999.90;;;;;;;18.17;100.00;95775.75;6245485;23;20247;-58
2022/09/22 07:28:54;;;;;;;1999.90;999.90;;;;;;;19.18;100.00;95775.13;6246248;23;20160;-57
2022/09/22 07:31:22;;;;;;;1999.90;999.90;;;;;;;19.53;95.58;95789.72;6245435;23;20189;-58
2022/09/22 07:33:47;;;;;;;1999.90;999.90;;;;;;;18.68;97.91;95771.72;6245399;23;20195;-59
2022/09/22 07:36:18;;;;;;;1999.90;999.90;;;;;;;18.94;95.22;95782.28;6245656;23;20169;-57
2022/09/22 07:38:50;;;;;;;1999.90;999.90;;;;;;;20.07;86.33;95801.13;6245656;23;20157;-58
2022/09/22 07:41:21;;;;;;;1999.90;999.90;;;;;;;20.63;80.49;95812.81;6245834;22;20169;-57
2022/09/22 07:43:52;;;;;;;1999.90;999.90;;;;;;;21.20;78.72;95814.81;6246090;23;20157;-57
2022/09/22 07:46:18;;;;;;;1999.90;999.90;;;;;;;21.81;71.67;95842.31;6245468;22;20172;-58
2022/09/22 07:48:47;;;;;;;1999.90;999.90;;;;;;;22.80;63.76;95855.22;6245946;23;20157;-58
2022/09/22 07:51:20;;;;;;;1999.90;999.90;;;;;;;22.96;60.53;95856.84;6244894;23;20196;-55
2022/09/22 07:54:02;;;;;;;1999.90;999.90;;;;;;;23.23;60.97;95865.09;6246131;22;20233;-55
2022/09/22 07:56:27;;;;;;;1999.90;999.90;;;;;;;23.37;58.33;95864.34;6271315;22;20172;-55
2022/09/22 07:58:53;;;;;;;1999.90;999.90;;;;;;;22.89;58.78;95871.13;6245334;23;20158;-57
2022/09/22 08:01:21;;;;;;;1999.90;999.90;;;;;;;22.95;61.09;95860.88;6271321;22;20169;-55
2022/09/22 08:03:46;;;;;;;1999.90;999.90;;;;;;;23.71;57.66;95861.03;6245469;22;20239;-56
2022/09/22 08:06:14;;;;;;;1999.90;999.90;;;;;;;23.85;55.04;95877.03;6271399;22;20166;-59
2022/09/22 08:08:42;;;;;;;1999.90;999.90;;;;;;;24.13;52.81;95876.34;6245309;23;20240;-57
2022/09/22 08:11:12;;;;;;;1999.90;999.90;;;;;;;22.05;60.81;95884.19;6244928;23;20185;-59
2022/09/22 08:13:38;;;;;;;1999.90;999.90;;;;;;;22.52;60.31;95885.19;6244957;23;20165;-55
2022/09/22 08:16:04;;;;;;;1999.90;999.90;;;;;;;22.62;56.22;95874.03;6245574;22;20165;-57
2022/09/22 08:18:31;;;;;;;1999.90;999.90;;;;;;;21.52;60.59;95874.56;6245555;22;20248;-57
2022/09/22 08:20:59;;;;;;;1999.90;999.90;;;;;;;21.30;61.93;95874.72;6245462;22;20172;-57
2022/09/22 08:23:24;;;;;;;1999.90;999.90;;;;;;;21.91;61.29;95871.69;6270779;22;20161;-57
2022/09/22 08:25:50;;;;;;;1999.90;999.90;;;;;;;21.39;65.92;95866.41;6245707;23;20167;-57
2022/09/22 08:28:15;;;;;;;1999.90;999.90;;;;;;;20.29;68.05;95871.25;6270910;22;20160;-57
2022/09/22 08:30:48;;;;;;;1999.90;999.90;;;;;;;20.31;68.67;95876.34;6270908;22;20215;-58
2022/09/22 08:33:13;;;;;;;1999.90;999.90;;;;;;;20.98;66.31;95875.25;6244944;22;20157;-55
2022/09/22 08:35:52;;;;;;;1999.90;999.90;;;;;;;20.28;69.33;95874.50;6270524;22;20222;-56
2022/09/22 08:38:18;;;;;;;1999.90;999.90;;;;;;;20.97;67.19;95879.28;6244783;23;20168;-55
2022/09/22 08:40:57;;;;;;;1999.90;999.90;;;;;;;20.27;69.14;95864.59;6270383;22;20195;-57
2022/09/22 08:43:22;;;;;;;1999.90;999.90;;;;;;;20.48;71.50;95859.03;6244471;23;20169;-58
2022/09/22 08:45:49;;;;;;;1999.90;999.90;;;;;;;20.26;72.15;95857.50;6245984;23;20192;-54
2022/09/22 08:54:04;;;;;;;1999.90;999.90;;;;;;;21.03;67.63;95868.34;6247487;23;20211;-56
2022/09/22 08:56:35;;;;;;;1999.90;999.90;;;;;;;20.92;68.99;95865.19;6246022;23;20161;-56
2022/09/22 08:59:11;;;;;;;1999.90;999.90;;;;;;;19.59;78.47;95848.88;6246639;23;20165;-55
2022/09/22 09:02:09;;;;;;;1999.90;999.90;;;;;;;19.73;77.16;95853.91;6272169;22;20203;-57
2022/09/22 09:05:13;;;;;;;1999.90;999.90;;;;;;;20.71;72.71;95850.16;6271996;22;20580;-56
2022/09/22 09:07:59;;;;;;;1999.90;999.90;;;;;;;20.66;73.93;95853.53;6271747;22;20626;-56
2022/09/22 09:10:39;;;;;;;1999.90;999.90;;;;;;;19.71;81.62;95845.28;6272080;22;20185;-58
2022/09/22 09:13:28;;;;;;;1999.90;999.90;;;;;;;20.49;74.53;95849.47;6271899;22;20169;-56
2022/09/22 09:15:56;;;;;;;1999.90;999.90;;;;;;;19.39;81.34;95848.41;6229843;23;20169;-58
2022/09/22 09:18:31;;;;;;;1999.90;999.90;;;;;;;18.68;87.84;95838.13;6271651;22;20161;-57
2022/09/22 09:21:01;;;;;;;1999.90;999.90;;;;;;;19.02;82.49;95838.97;6246510;23;20169;-56
2022/09/22 09:23:32;;;;;;;1999.90;999.90;;;;;;;19.94;77.47;95847.59;6271700;22;20187;-57
2022/09/22 09:25:59;;;;;;;1999.90;999.90;;;;;;;19.40;78.13;95847.19;6245732;23;20224;-56
2022/09/22 09:28:34;;;;;;;1999.90;999.90;;;;;;;20.60;72.69;95849.03;6246651;22;20173;-58
2022/09/22 09:31:33;;;;;;;1999.90;999.90;;;;;;;20.24;72.87;95846.88;6271381;22;20184;-56
2022/09/22 09:34:01;;;;;;;1999.90;999.90;;;;;;;20.96;68.40;95854.72;6264324;22;20173;-57
2022/09/22 09:36:32;;;;;;;1999.90;999.90;;;;;;;20.42;67.55;95846.97;6245921;22;20228;-57
2022/09/22 09:39:01;;;;;;;1999.90;999.90;;;;;;;19.93;66.71;95857.16;6246540;23;20172;-54
2022/09/22 09:41:31;;;;;;;1999.90;999.90;;;;;;;19.74;69.95;95855.44;6271832;22;20169;-57
2022/09/22 09:44:02;;;;;;;1999.90;999.90;;;;;;;20.08;68.24;95851.84;6245825;22;20196;-56
2022/09/22 09:46:43;;;;;;;1999.90;999.90;;;;;;;20.28;68.35;95850.28;6272014;22;20227;-56
2022/09/22 09:49:15;;;;;;;1999.90;999.90;;;;;;;20.41;72.04;95837.09;6271465;22;20200;-57
2022/09/22 09:51:47;;;;;;;1999.90;999.90;;;;;;;20.13;71.38;95854.81;6245720;23;20193;-59
2022/09/22 09:54:16;;;;;;;1999.90;999.90;;;;;;;20.65;71.21;95829.78;6245914;23;20157;-56
2022/09/22 09:57:01;;;;;;;1999.90;999.90;;;;;;;20.24;68.96;95844.09;6271119;22;20173;-56
2022/09/22 10:02:18;;;;;;;1999.90;999.90;;;;;;;21.04;69.06;95842.88;6247327;23;20237;-56
2022/09/22 10:04:50;;;;;;;1999.90;999.90;;;;;;;21.06;64.64;95831.31;6245731;23;20165;-56
2022/09/22 10:07:23;;;;;;;1999.90;999.90;;;;;;;20.75;68.40;95827.78;6246424;23;20167;-56
2022/09/22 10:09:51;;;;;;;1999.90;999.90;;;;;;;22.01;57.84;95839.84;6245799;23;20264;-56
2022/09/22 10:12:22;;;;;;;1999.90;999.90;;;;;;;22.70;56.21;95827.88;6271424;22;20181;-56
2022/09/22 10:14:50;;;;;;;1999.90;999.90;;;;;;;20.54;61.60;95832.19;6245719;23;20165;-56
2022/09/22 10:17:21;;;;;;;1999.90;999.90;;;;;;;19.62;57.59;95847.22;6245579;22;20559;-56
2022/09/22 10:19:46;;;;;;;1999.90;999.90;;;;;;;19.42;60.42;95833.66;6245569;23;20584;-55
2022/09/22 10:22:26;;;;;;;1999.90;999.90;;;;;;;19.48;63.11;95826.31;6271910;22;20163;-55
2022/09/22 10:25:03;;;;;;;1999.90;999.90;;;;;;;19.11;62.52;95824.44;6246231;23;20165;-56
2022/09/22 10:27:30;;;;;;;1999.90;999.90;;;;;;;18.53;66.36;95825.97;6246235;23;20175;-56
2022/09/22 10:30:21;;;;;;;1999.90;999.90;;;;;;;20.20;63.05;95821.28;6271869;22;20240;-55
2022/09/22 10:33:17;;;;;;;1999.90;999.90;;;;;;;20.59;58.24;95820.53;6246219;23;20165;-55
2022/09/22 10:36:02;;;;;;;1999.90;999.90;;;;;;;20.62;57.09;95825.16;6246118;22;20204;-56
2022/09/22 10:38:32;;;;;;;1999.90;999.90;;;;;;;18.89;62.57;95829.13;6271664;22;20172;-56
2022/09/22 10:41:18;;;;;;;1999.90;999.90;;;;;;;18.91;65.18;95821.16;6245830;23;20193;-55
2022/09/22 10:43:52;;;;;;;1999.90;999.90;;;;;;;19.41;61.44;95821.03;6246239;23;20642;-56
2022/09/22 10:46:30;;;;;;;1999.90;999.90;;;;;;;20.04;56.09;95824.25;6246107;23;20169;-55
2022/09/22 10:49:29;;;;;;;1999.90;999.90;;;;;;;19.60;54.89;95828.28;6271807;22;20164;-57
2022/09/22 10:52:13;;;;;;;1999.90;999.90;;;;;;;19.84;54.26;95832.13;6271752;22;20189;-56
2022/09/22 10:54:57;;;;;;;1999.90;999.90;;;;;;;18.71;61.44;95829.72;6245946;23;20223;-55
2022/09/22 10:58:00;;;;;;;1999.90;999.90;;;;;;;18.34;66.44;95829.72;6271094;22;20247;-56
2022/09/22 11:00:27;;;;;;;1999.90;999.90;;;;;;;19.51;59.72;95830.97;6271454;22;20244;-56
2022/09/22 11:03:30;;;;;;;1999.90;999.90;;;;;;;18.81;63.67;95838.91;6245318;22;20188;-56
2022/09/22 11:12:36;;;;;;;1999.90;999.90;;;;;;;19.05;65.58;95815.16;6247079;23;20238;-56
2022/09/22 11:15:04;;;;;;;1999.90;999.90;;;;;;;18.01;66.30;95811.78;6272013;22;20168;-55
2022/09/22 11:17:51;;;;;;;1999.90;999.90;;;;;;;17.74;69.08;95814.19;6271809;22;20169;-55
2022/09/22 11:20:22;;;;;;;1999.90;999.90;;;;;;;17.56;71.84;95805.63;6271121;22;20161;-55
2022/09/22 11:23:42;;;;;;;1999.90;999.90;;;;;;;16.73;75.41;95809.41;6271494;22;20244;-55